createdAt,value
2022-08-19T00:01:54.031Z,47.50
2022-08-19T00:04:25.496Z,47.80
2022-08-19T00:06:55.619Z,47.80
2022-08-19T00:09:24.848Z,47.60
2022-08-19T00:11:53.455Z,47.95
2022-08-19T00:14:22.934Z,47.62
2022-08-19T00:16:52.516Z,47.61
2022-08-19T00:19:21.133Z,47.94
2022-08-19T00:21:49.741Z,47.75
2022-08-19T00:24:20.000Z,47.93
2022-08-19T00:26:48.486Z,47.61
2022-08-19T00:29:18.284Z,47.55
2022-08-19T00:31:47.124Z,47.89
2022-08-19T00:34:16.645Z,47.94
2022-08-19T00:36:45.482Z,47.58
2022-08-19T00:39:14.142Z,47.75
2022-08-19T00:41:44.277Z,48.27
2022-08-19T00:44:17.808Z,47.78
2022-08-19T00:46:51.635Z,48.08
2022-08-19T00:49:30.092Z,47.82
2022-08-19T00:52:02.091Z,48.11
2022-08-19T00:54:32.597Z,47.81
2022-08-19T00:57:02.432Z,47.91
2022-08-19T01:00:00.581Z,48.16
2022-08-19T01:02:19.621Z,48.35
2022-08-19T01:04:48.091Z,48.20
2022-08-19T01:07:17.438Z,47.99
2022-08-19T01:09:48.617Z,48.23
2022-08-19T01:12:18.508Z,48.17
2022-08-19T01:14:47.341Z,48.15
2022-08-19T01:17:16.192Z,47.94
2022-08-19T01:19:45.593Z,48.33
2022-08-19T01:22:23.360Z,48.33
2022-08-19T01:24:57.778Z,48.57
2022-08-19T01:27:30.363Z,48.74
2022-08-19T01:30:11.700Z,48.48
2022-08-19T01:32:40.113Z,48.32
2022-08-19T01:35:09.162Z,48.72
2022-08-19T01:37:46.665Z,48.63
2022-08-19T01:40:17.131Z,48.05
2022-08-19T01:42:45.818Z,48.24
2022-08-19T01:45:14.270Z,48.31
2022-08-19T01:47:42.681Z,48.45
2022-08-19T01:50:20.281Z,48.90
2022-08-19T01:53:01.275Z,48.59
2022-08-19T01:55:39.525Z,48.58
2022-08-19T01:58:12.428Z,48.55
2022-08-19T02:00:40.933Z,48.38
2022-08-19T02:03:11.145Z,48.39
2022-08-19T02:05:39.947Z,48.52
2022-08-19T02:08:08.809Z,48.71
2022-08-19T02:10:41.697Z,48.83
2022-08-19T02:13:10.594Z,48.39
2022-08-19T02:15:39.484Z,48.72
2022-08-19T02:18:09.396Z,48.56
2022-08-19T02:20:38.381Z,48.79
2022-08-19T02:23:13.939Z,48.64
2022-08-19T02:25:47.013Z,48.68
2022-08-19T02:28:18.800Z,48.77
2022-08-19T02:30:47.968Z,48.35
2022-08-19T02:33:16.877Z,48.17
2022-08-19T02:35:45.561Z,48.43
2022-08-19T02:38:28.172Z,48.68
2022-08-19T02:40:59.713Z,48.39
2022-08-19T02:43:28.828Z,48.60
2022-08-19T02:45:57.504Z,48.49
2022-08-19T02:48:26.949Z,48.36
2022-08-19T02:50:56.919Z,48.71
2022-08-19T02:53:26.506Z,48.27
2022-08-19T02:55:55.117Z,48.71
2022-08-19T02:58:25.480Z,48.90
2022-08-19T03:00:57.403Z,48.96
2022-08-19T03:03:25.990Z,49.02
2022-08-19T03:06:04.202Z,48.49
2022-08-19T03:08:32.718Z,48.57
2022-08-19T03:11:01.299Z,48.87
2022-08-19T03:13:31.381Z,48.90
2022-08-19T03:15:59.861Z,48.64
2022-08-19T03:18:28.426Z,48.84
2022-08-19T03:20:57.338Z,48.70
2022-08-19T03:23:25.968Z,48.61
2022-08-19T03:26:02.823Z,48.71
2022-08-19T03:28:51.842Z,49.02
2022-08-19T03:31:43.730Z,48.82
2022-08-19T03:34:18.755Z,48.90
2022-08-19T03:36:47.555Z,49.03
2022-08-19T03:39:16.339Z,48.76
2022-08-19T03:41:48.125Z,48.59
2022-08-19T03:44:21.712Z,48.72
2022-08-19T03:46:52.497Z,48.94
2022-08-19T03:49:21.497Z,48.72
2022-08-19T03:51:56.412Z,48.67
2022-08-19T03:54:26.239Z,48.73
2022-08-19T03:56:56.266Z,48.69
2022-08-19T03:59:28.848Z,48.54
2022-08-19T04:01:58.127Z,48.44
2022-08-19T04:04:29.054Z,48.85
2022-08-19T04:06:58.221Z,48.36
2022-08-19T04:09:26.982Z,48.76
2022-08-19T04:11:58.491Z,48.32
2022-08-19T04:14:32.935Z,48.54
2022-08-19T04:17:02.215Z,48.35
2022-08-19T04:19:32.374Z,48.61
2022-08-19T04:22:00.969Z,48.50
2022-08-19T04:24:29.709Z,48.35
2022-08-19T04:26:58.316Z,48.54
2022-08-19T04:29:28.631Z,48.69
2022-08-19T04:31:57.823Z,48.71
2022-08-19T04:34:29.560Z,48.46
2022-08-19T04:36:59.518Z,48.30
2022-08-19T04:39:46.504Z,48.41
2022-08-19T04:42:32.936Z,48.69
2022-08-19T04:45:04.312Z,48.47
2022-08-19T04:47:49.186Z,48.41
2022-08-19T04:50:23.634Z,48.38
2022-08-19T04:52:53.615Z,48.63
2022-08-19T04:55:22.361Z,48.71
2022-08-19T04:57:52.271Z,48.65
2022-08-19T05:00:22.305Z,48.36
2022-08-19T05:02:50.851Z,48.46
2022-08-19T05:05:20.931Z,48.87
2022-08-19T05:07:49.608Z,48.59
2022-08-19T05:10:18.328Z,48.82
2022-08-19T05:12:46.813Z,48.65
2022-08-19T05:15:16.589Z,48.18
2022-08-19T05:18:06.479Z,48.42
2022-08-19T05:20:52.829Z,48.76
2022-08-19T05:23:22.904Z,48.34
2022-08-19T05:25:52.822Z,48.49
2022-08-19T05:28:21.701Z,48.96
2022-08-19T05:30:52.055Z,48.61
2022-08-19T05:33:22.634Z,48.71
2022-08-19T05:35:51.458Z,48.58
2022-08-19T05:38:20.278Z,48.20
2022-08-19T05:40:50.502Z,48.55
2022-08-19T05:43:19.028Z,48.21
2022-08-19T05:45:47.705Z,48.35
2022-08-19T05:48:18.527Z,48.15
2022-08-19T05:50:51.365Z,47.79
2022-08-19T05:53:20.303Z,47.99
2022-08-19T05:55:48.831Z,48.10
2022-08-19T05:58:18.414Z,47.64
2022-08-19T06:00:52.604Z,47.92
2022-08-19T06:03:21.212Z,47.38
2022-08-19T06:05:52.336Z,47.49
2022-08-19T06:08:34.002Z,47.23
2022-08-19T06:11:18.067Z,47.28
2022-08-19T06:13:51.588Z,47.56
2022-08-19T06:16:23.461Z,47.47
2022-08-19T06:18:53.628Z,46.96
2022-08-19T06:21:24.401Z,47.26
2022-08-19T06:23:53.336Z,47.21
2022-08-19T06:26:22.324Z,47.11
2022-08-19T06:28:51.419Z,47.06
2022-08-19T06:31:22.925Z,47.20
2022-08-19T06:33:51.920Z,47.35
2022-08-19T06:36:25.677Z,47.52
2022-08-19T06:38:54.694Z,47.41
2022-08-19T06:41:23.216Z,47.43
2022-08-19T06:43:54.016Z,47.44
2022-08-19T06:46:24.310Z,47.49
2022-08-19T06:48:54.612Z,47.11
2022-08-19T06:51:25.086Z,47.19
2022-08-19T06:53:55.715Z,47.20
2022-08-19T06:56:31.750Z,47.41
2022-08-19T06:59:01.623Z,47.55
2022-08-19T07:01:30.445Z,47.88
2022-08-19T07:03:59.199Z,47.70
2022-08-19T07:06:44.866Z,47.50
2022-08-19T07:09:18.408Z,47.61
2022-08-19T07:11:47.906Z,47.38
2022-08-19T07:14:19.439Z,47.58
2022-08-19T07:16:49.797Z,47.46
2022-08-19T07:19:18.892Z,47.32
2022-08-19T07:21:49.760Z,47.31
2022-08-19T07:24:19.100Z,47.64
2022-08-19T07:26:51.898Z,47.22
2022-08-19T07:29:24.229Z,47.32
2022-08-19T07:31:57.101Z,47.50
2022-08-19T07:34:26.286Z,47.74
2022-08-19T07:36:56.612Z,47.72
2022-08-19T07:39:27.432Z,47.82
2022-08-19T07:41:56.297Z,47.83
2022-08-19T07:44:24.946Z,47.86
2022-08-19T07:46:56.725Z,47.73
2022-08-19T07:49:25.586Z,48.08
2022-08-19T07:51:58.379Z,48.22
2022-08-19T07:54:28.162Z,48.18
2022-08-19T07:56:57.078Z,47.92
2022-08-19T07:59:27.311Z,47.97
2022-08-19T08:01:57.839Z,48.00
2022-08-19T08:04:44.298Z,48.31
2022-08-19T08:07:37.796Z,48.38
2022-08-19T08:10:08.558Z,48.11
2022-08-19T08:13:05.832Z,48.71
2022-08-19T08:15:42.823Z,48.60
2022-08-19T08:18:11.956Z,48.97
2022-08-19T08:20:40.777Z,48.65
2022-08-19T08:23:25.893Z,48.86
2022-08-19T08:25:55.995Z,48.55
2022-08-19T08:28:25.161Z,48.43
2022-08-19T08:30:55.777Z,48.80
2022-08-19T08:33:33.657Z,48.51
2022-08-19T08:36:04.338Z,48.55
2022-08-19T08:38:40.124Z,48.52
2022-08-19T08:41:20.620Z,48.72
2022-08-19T08:43:52.101Z,49.01
2022-08-19T08:46:30.507Z,48.76
2022-08-19T08:49:05.306Z,48.97
2022-08-19T08:51:37.049Z,48.88
2022-08-19T08:54:09.835Z,49.06
2022-08-19T08:56:40.562Z,49.06
2022-08-19T08:59:12.910Z,48.73
2022-08-19T09:01:41.477Z,49.04
2022-08-19T09:04:10.199Z,49.21
2022-08-19T09:06:44.135Z,49.45
2022-08-19T09:09:17.951Z,49.58
2022-08-19T09:12:00.995Z,49.05
2022-08-19T09:14:54.339Z,49.44
2022-08-19T09:17:31.572Z,48.92
2022-08-19T09:20:05.813Z,48.97
2022-08-19T09:22:38.167Z,49.13
2022-08-19T09:25:10.839Z,49.45
2022-08-19T09:27:42.768Z,49.42
2022-08-19T09:30:15.898Z,49.63
2022-08-19T09:32:45.183Z,49.29
2022-08-19T09:35:14.995Z,49.70
2022-08-19T09:37:44.406Z,48.98
2022-08-19T09:40:15.429Z,49.90
2022-08-19T09:42:50.240Z,49.25
2022-08-19T09:45:22.935Z,49.60
2022-08-19T09:47:54.619Z,49.13
2022-08-19T09:50:24.090Z,49.41
2022-08-19T09:52:57.725Z,49.37
2022-08-19T09:55:31.670Z,49.28
2022-08-19T09:58:02.961Z,49.25
2022-08-19T10:00:32.050Z,49.70
2022-08-19T10:03:01.022Z,49.50
2022-08-19T10:05:48.406Z,49.34
2022-08-19T10:08:20.668Z,49.92
2022-08-19T10:10:51.626Z,49.24
2022-08-19T10:13:23.452Z,49.11
2022-08-19T10:15:52.638Z,48.97
2022-08-19T10:18:22.617Z,49.01
2022-08-19T10:20:52.707Z,48.46
2022-08-19T10:23:21.866Z,47.64
2022-08-19T10:25:52.481Z,46.85
2022-08-19T10:28:20.940Z,46.65
2022-08-19T10:30:52.171Z,46.16
2022-08-19T10:33:38.228Z,46.54
2022-08-19T10:36:11.652Z,46.86
2022-08-19T10:38:40.383Z,46.65
2022-08-19T10:41:24.416Z,45.91
2022-08-19T10:43:53.541Z,46.02
2022-08-19T10:46:22.792Z,46.61
2022-08-19T10:48:51.788Z,45.32
2022-08-19T10:51:37.829Z,45.56
2022-08-19T10:54:16.480Z,45.24
2022-08-19T10:56:54.465Z,45.56
2022-08-19T10:59:26.933Z,44.75
2022-08-19T11:01:56.743Z,44.75
2022-08-19T11:04:29.530Z,44.31
2022-08-19T11:06:58.712Z,44.44
2022-08-19T11:09:33.715Z,44.19
2022-08-19T11:12:05.193Z,43.41
2022-08-19T11:14:34.944Z,42.89
2022-08-19T11:17:04.036Z,42.66
2022-08-19T11:19:32.635Z,42.68
2022-08-19T11:22:03.803Z,42.12
2022-08-19T11:24:33.876Z,42.23
2022-08-19T11:27:10.125Z,42.38
2022-08-19T11:29:39.690Z,42.17
2022-08-19T11:32:12.669Z,42.85
2022-08-19T11:34:41.319Z,42.48
2022-08-19T11:37:10.050Z,42.62
2022-08-19T11:39:38.898Z,42.88
2022-08-19T11:42:29.600Z,43.14
2022-08-19T11:44:58.361Z,42.55
2022-08-19T11:47:27.479Z,42.47
2022-08-19T11:49:56.166Z,41.44
2022-08-19T11:52:24.906Z,41.31
2022-08-19T11:54:53.393Z,40.83
2022-08-19T11:57:23.742Z,40.83
2022-08-19T11:59:52.768Z,40.61
2022-08-19T12:02:22.786Z,40.60
2022-08-19T12:04:51.276Z,41.17
2022-08-19T12:07:19.771Z,41.32
2022-08-19T12:09:48.856Z,42.81
2022-08-19T12:12:17.659Z,43.31
2022-08-19T12:14:47.619Z,42.23
2022-08-19T12:17:16.344Z,43.20
2022-08-19T12:19:45.481Z,43.01
2022-08-19T12:22:13.904Z,42.13
2022-08-19T12:24:42.342Z,41.14
2022-08-19T12:27:12.674Z,41.38
2022-08-19T12:29:42.571Z,40.73
2022-08-19T12:32:12.498Z,41.18
2022-08-19T12:34:41.050Z,41.25
2022-08-19T12:37:09.562Z,40.91
2022-08-19T12:39:40.017Z,41.26
2022-08-19T12:42:09.905Z,41.73
2022-08-19T12:44:41.667Z,41.88
2022-08-19T12:47:14.473Z,41.75
2022-08-19T12:49:55.172Z,41.79
2022-08-19T12:52:26.073Z,41.90
2022-08-19T12:54:55.708Z,41.80
2022-08-19T12:57:32.197Z,41.78
2022-08-19T13:00:05.282Z,42.46
2022-08-19T13:02:38.620Z,42.42
2022-08-19T13:05:12.210Z,42.12
2022-08-19T13:07:41.504Z,42.22
2022-08-19T13:10:13.374Z,42.36
2022-08-19T13:12:42.912Z,43.34
2022-08-19T13:15:13.104Z,43.34
2022-08-19T13:17:46.325Z,43.48
2022-08-19T13:20:14.802Z,42.99
2022-08-19T13:22:43.413Z,43.62
2022-08-19T13:25:12.056Z,43.85
2022-08-19T13:27:41.002Z,43.71
2022-08-19T13:30:29.237Z,44.05
2022-08-19T13:33:19.078Z,43.81
2022-08-19T13:35:49.814Z,43.64
2022-08-19T13:38:20.005Z,43.06
2022-08-19T13:40:48.599Z,43.14
2022-08-19T13:43:22.572Z,42.87
2022-08-19T13:45:53.817Z,43.23
2022-08-19T13:48:23.698Z,43.48
2022-08-19T13:50:52.248Z,43.45
2022-08-19T13:53:20.839Z,43.81
2022-08-19T13:55:50.969Z,43.27
2022-08-19T13:58:19.569Z,42.86
2022-08-19T14:00:48.638Z,42.81
2022-08-19T14:03:17.207Z,42.97
2022-08-19T14:05:47.778Z,42.79
2022-08-19T14:08:16.258Z,42.16
2022-08-19T14:10:45.585Z,41.74
2022-08-19T14:13:16.904Z,41.57
2022-08-19T14:15:45.423Z,41.64
2022-08-19T14:18:13.957Z,41.60
2022-08-19T14:20:42.695Z,41.35
2022-08-19T14:23:13.255Z,41.41
2022-08-19T14:25:41.744Z,41.59
2022-08-19T14:28:10.204Z,41.64
2022-08-19T14:30:39.704Z,41.60
2022-08-19T14:33:09.415Z,41.77
2022-08-19T14:35:38.147Z,41.72
2022-08-19T14:38:07.339Z,41.27
2022-08-19T14:40:37.252Z,41.56
2022-08-19T14:43:06.421Z,41.59
2022-08-19T14:45:38.335Z,41.20
2022-08-19T14:48:07.169Z,42.56
2022-08-19T14:50:36.153Z,43.56
2022-08-19T14:53:11.892Z,43.38
2022-08-19T14:55:45.087Z,42.75
2022-08-19T14:58:29.823Z,42.83
2022-08-19T15:01:00.798Z,43.23
2022-08-19T15:03:29.638Z,42.87
2022-08-19T15:05:58.916Z,42.88
2022-08-19T15:08:27.969Z,43.18
2022-08-19T15:10:58.036Z,42.84
2022-08-19T15:13:27.678Z,43.44
2022-08-19T15:15:56.493Z,43.27
2022-08-19T15:18:25.168Z,43.10
2022-08-19T15:20:53.657Z,43.80
2022-08-19T15:23:22.958Z,43.73
2022-08-19T15:25:54.513Z,43.72
2022-08-19T15:28:24.504Z,43.93
2022-08-19T15:30:53.149Z,43.54
2022-08-19T15:33:21.673Z,43.75
2022-08-19T15:35:51.668Z,43.57
2022-08-19T15:38:22.416Z,43.46
2022-08-19T15:40:51.321Z,43.86
2022-08-19T15:43:21.312Z,43.64
2022-08-19T15:45:51.195Z,44.04
2022-08-19T15:48:19.672Z,43.67
2022-08-19T15:50:48.099Z,44.00
2022-08-19T15:53:16.565Z,43.73
2022-08-19T15:55:46.427Z,44.30
2022-08-19T15:58:49.269Z,44.25
2022-08-19T16:01:40.811Z,43.53
2022-08-19T16:04:27.089Z,43.62
2022-08-19T16:06:57.724Z,43.33
2022-08-19T16:09:29.030Z,43.59
2022-08-19T16:12:01.648Z,43.85
2022-08-19T16:14:31.282Z,43.58
2022-08-19T16:17:02.179Z,43.53
2022-08-19T16:19:33.328Z,43.35
2022-08-19T16:22:01.909Z,42.93
2022-08-19T16:24:30.403Z,43.52
2022-08-19T16:26:58.849Z,43.46
2022-08-19T16:29:33.943Z,44.02
2022-08-19T16:32:11.517Z,42.73
2022-08-19T16:34:40.215Z,42.91
2022-08-19T16:37:08.721Z,42.66
2022-08-19T16:39:37.281Z,42.69
2022-08-19T16:42:07.677Z,43.07
2022-08-19T16:44:39.444Z,42.81
2022-08-19T16:47:09.603Z,42.43
2022-08-19T16:49:54.437Z,43.07
2022-08-19T16:52:27.160Z,43.27
2022-08-19T16:54:56.002Z,43.12
2022-08-19T16:57:24.980Z,43.11
2022-08-19T16:59:53.584Z,42.89
2022-08-19T17:02:30.851Z,42.77
2022-08-19T17:04:59.569Z,42.92
2022-08-19T17:07:28.517Z,42.64
2022-08-19T17:09:57.273Z,42.89
2022-08-19T17:12:30.533Z,43.15
2022-08-19T17:15:01.435Z,43.31
2022-08-19T17:17:31.782Z,43.26
2022-08-19T17:20:00.493Z,43.84
2022-08-19T17:22:29.846Z,44.14
2022-08-19T17:24:58.698Z,44.56
2022-08-19T17:27:31.459Z,44.41
2022-08-19T17:30:02.721Z,44.66
2022-08-19T17:32:35.630Z,44.59
2022-08-19T17:35:05.242Z,45.61
2022-08-19T17:37:34.993Z,48.69
2022-08-19T17:40:03.993Z,47.62
2022-08-19T17:42:32.628Z,47.74
2022-08-19T17:45:01.093Z,47.21
2022-08-19T17:47:29.887Z,47.33
2022-08-19T17:49:59.971Z,47.62
2022-08-19T17:52:28.534Z,47.14
2022-08-19T17:54:57.147Z,47.54
2022-08-19T17:57:25.590Z,47.83
2022-08-19T17:59:54.144Z,48.07
2022-08-19T18:02:23.759Z,48.83
2022-08-19T18:04:52.231Z,49.42
2022-08-19T18:07:22.421Z,48.93
2022-08-19T18:09:52.863Z,48.95
2022-08-19T18:12:24.662Z,51.63
2022-08-19T18:14:53.249Z,53.20
2022-08-19T18:17:23.439Z,52.60
2022-08-19T18:19:52.017Z,52.77
2022-08-19T18:22:27.058Z,52.70
2022-08-19T18:24:56.299Z,52.26
2022-08-19T18:27:24.825Z,52.29
2022-08-19T18:29:54.660Z,52.60
2022-08-19T18:32:25.960Z,51.91
2022-08-19T18:34:56.257Z,51.27
2022-08-19T18:37:27.496Z,50.85
2022-08-19T18:40:13.572Z,50.48
2022-08-19T18:43:03.461Z,50.90
2022-08-19T18:45:50.513Z,50.84
2022-08-19T18:48:36.362Z,50.57
2022-08-19T18:51:04.985Z,51.10
2022-08-19T18:53:35.975Z,50.98
2022-08-19T18:56:05.666Z,50.70
2022-08-19T18:58:35.069Z,50.77
2022-08-19T19:01:11.632Z,50.48
2022-08-19T19:03:42.411Z,52.62
2022-08-19T19:06:12.893Z,53.50
2022-08-19T19:08:42.828Z,54.50
2022-08-19T19:11:11.302Z,54.68
2022-08-19T19:13:41.102Z,55.12
2022-08-19T19:16:11.716Z,55.12
2022-08-19T19:18:40.223Z,55.08
2022-08-19T19:21:09.494Z,54.95
2022-08-19T19:23:40.914Z,55.11
2022-08-19T19:26:11.023Z,54.84
2022-08-19T19:28:44.061Z,54.89
2022-08-19T19:31:16.323Z,53.84
2022-08-19T19:33:45.418Z,54.54
2022-08-19T19:36:14.031Z,54.68
2022-08-19T19:38:48.321Z,55.09
2022-08-19T19:41:20.678Z,55.59
2022-08-19T19:43:59.922Z,55.68
2022-08-19T19:46:38.243Z,55.86
2022-08-19T19:49:07.065Z,56.24
2022-08-19T19:51:37.669Z,56.45
2022-08-19T19:54:06.833Z,56.29
2022-08-19T19:56:36.972Z,56.28
2022-08-19T19:59:05.720Z,56.24
2022-08-19T20:01:35.206Z,56.11
2022-08-19T20:04:04.798Z,56.14
2022-08-19T20:06:34.101Z,56.07
2022-08-19T20:09:11.018Z,55.94
2022-08-19T20:11:42.672Z,56.09
2022-08-19T20:14:12.919Z,55.75
2022-08-19T20:16:44.133Z,56.16
2022-08-19T20:19:14.639Z,56.33
2022-08-19T20:21:46.764Z,56.10
2022-08-19T20:24:20.617Z,56.14
2022-08-19T20:26:53.359Z,56.13
2022-08-19T20:29:39.356Z,56.04
2022-08-19T20:32:10.431Z,55.89
2022-08-19T20:34:39.362Z,56.27
2022-08-19T20:37:09.549Z,56.13
2022-08-19T20:39:38.626Z,56.28
2022-08-19T20:42:08.644Z,55.97
2022-08-19T20:44:37.900Z,55.46
2022-08-19T20:47:06.968Z,55.27
2022-08-19T20:49:35.833Z,54.39
2022-08-19T20:52:06.316Z,54.50
2022-08-19T20:54:35.539Z,54.95
2022-08-19T20:57:05.549Z,54.29
2022-08-19T20:59:37.888Z,54.32
2022-08-19T21:02:06.766Z,54.04
2022-08-19T21:04:35.443Z,53.65
2022-08-19T21:07:03.908Z,53.83
2022-08-19T21:09:33.533Z,53.75
2022-08-19T21:12:05.063Z,53.64
2022-08-19T21:14:33.547Z,54.18
2022-08-19T21:17:03.454Z,54.49
2022-08-19T21:19:31.943Z,54.15
2022-08-19T21:22:01.441Z,54.94
2022-08-19T21:24:31.448Z,54.57
2022-08-19T21:27:00.393Z,53.94
2022-08-19T21:29:28.907Z,54.78
2022-08-19T21:31:57.445Z,53.90
2022-08-19T21:34:27.323Z,53.50
2022-08-19T21:36:56.228Z,53.70
2022-08-19T21:39:24.928Z,53.70
2022-08-19T21:41:53.385Z,53.75
2022-08-19T21:44:21.924Z,54.24
2022-08-19T21:46:50.791Z,54.41
2022-08-19T21:49:19.750Z,54.03
2022-08-19T21:51:49.875Z,53.77
2022-08-19T21:54:18.349Z,54.10
2022-08-19T21:56:47.123Z,53.73
2022-08-19T21:59:16.931Z,53.80
2022-08-19T22:01:49.670Z,54.36
2022-08-19T22:04:22.640Z,54.40
2022-08-19T22:06:52.537Z,54.85
2022-08-19T22:09:21.621Z,55.38
2022-08-19T22:11:50.215Z,54.32
2022-08-19T22:14:18.695Z,54.51
2022-08-19T22:16:47.493Z,54.45
2022-08-19T22:19:16.081Z,54.59
2022-08-19T22:21:44.556Z,54.56
2022-08-19T22:24:14.474Z,54.81
2022-08-19T22:26:42.911Z,53.91
2022-08-19T22:29:11.511Z,54.01
2022-08-19T22:31:44.385Z,53.89
2022-08-19T22:34:12.816Z,53.85
2022-08-19T22:36:41.287Z,54.54
2022-08-19T22:39:09.993Z,54.30
2022-08-19T22:41:40.910Z,54.08
2022-08-19T22:44:11.429Z,53.89
2022-08-19T22:46:40.003Z,53.75
2022-08-19T22:49:08.538Z,53.79
2022-08-19T22:51:54.479Z,53.38
2022-08-19T22:54:23.061Z,53.50
2022-08-19T22:56:53.442Z,53.59
2022-08-19T22:59:22.530Z,53.53
2022-08-19T23:01:50.977Z,53.94
2022-08-19T23:04:19.500Z,53.69
2022-08-19T23:06:47.954Z,53.46
2022-08-19T23:09:16.971Z,54.41
2022-08-19T23:11:45.984Z,53.97
2022-08-19T23:14:16.958Z,54.09
2022-08-19T23:16:50.660Z,54.09
2022-08-19T23:19:20.424Z,54.17
2022-08-19T23:21:49.058Z,54.09
2022-08-19T23:24:17.670Z,53.73
2022-08-19T23:27:00.243Z,54.35
2022-08-19T23:29:49.323Z,54.25
2022-08-19T23:32:18.414Z,54.07
2022-08-19T23:34:47.046Z,54.21
2022-08-19T23:37:15.640Z,54.23
2022-08-19T23:39:45.247Z,54.51
2022-08-19T23:42:14.231Z,54.26
2022-08-19T23:44:52.325Z,54.15
2022-08-19T23:47:22.090Z,53.79
2022-08-19T23:49:50.905Z,54.12
2022-08-19T23:52:19.712Z,54.09
2022-08-19T23:54:48.107Z,53.86
2022-08-19T23:57:16.550Z,54.22
2022-08-19T23:59:46.378Z,53.72
